sensor_id;sensor_type;location;lat;lon;timestamp;temperature;humidity
14170;DHT22;63889;50.596;8.690;2023-02-01T00:01:44;6.20;99.90
14170;DHT22;63889;50.596;8.690;2023-02-01T00:04:09;6.20;99.90
14170;DHT22;63889;50.596;8.690;2023-02-01T00:06:35;6.10;99.90
14170;DHT22;63889;50.596;8.690;2023-02-01T00:09:01;6.10;99.90
14170;DHT22;63889;50.596;8.690;2023-02-01T00:11:26;6.10;99.90
14170;DHT22;63889;50.596;8.690;2023-02-01T00:13:52;6.00;99.90
14170;DHT22;63889;50.596;8.690;2023-02-01T00:16:20;6.00;99.90
14170;DHT22;63889;50.596;8.690;2023-02-01T00:18:48;6.00;99.90
14170;DHT22;63889;50.596;8.690;2023-02-01T00:21:15;6.10;99.90
14170;DHT22;63889;50.596;8.690;2023-02-01T00:23:42;6.10;99.90
14170;DHT22;63889;50.596;8.690;2023-02-01T00:26:16;6.10;99.90
14170;DHT22;63889;50.596;8.690;2023-02-01T00:28:41;6.00;99.90
14170;DHT22;63889;50.596;8.690;2023-02-01T00:31:07;6.00;99.90
14170;DHT22;63889;50.596;8.690;2023-02-01T00:33:33;6.00;99.90
14170;DHT22;63889;50.596;8.690;2023-02-01T00:36:00;6.00;99.90
14170;DHT22;63889;50.596;8.690;2023-02-01T00:38:27;6.00;99.90
14170;DHT22;63889;50.596;8.690;2023-02-01T00:40:53;6.00;99.90
14170;DHT22;63889;50.596;8.690;2023-02-01T00:43:19;5.90;99.90
14170;DHT22;63889;50.596;8.690;2023-02-01T00:45:46;5.90;99.90
14170;DHT22;63889;50.596;8.690;2023-02-01T00:48:11;6.00;99.90
14170;DHT22;63889;50.596;8.690;2023-02-01T00:50:41;6.00;99.90
14170;DHT22;63889;50.596;8.690;2023-02-01T00:53:09;6.10;99.90
14170;DHT22;63889;50.596;8.690;2023-02-01T00:55:34;6.10;99.90
14170;DHT22;63889;50.596;8.690;2023-02-01T00:58:00;6.10;99.90
14170;DHT22;63889;50.596;8.690;2023-02-01T01:00:26;6.00;99.90
14170;DHT22;63889;50.596;8.690;2023-02-01T01:02:51;6.00;99.90
14170;DHT22;63889;50.596;8.690;2023-02-01T01:05:17;6.10;99.90
14170;DHT22;63889;50.596;8.690;2023-02-01T01:07:43;6.10;99.90
14170;DHT22;63889;50.596;8.690;2023-02-01T01:10:08;6.10;99.90
14170;DHT22;63889;50.596;8.690;2023-02-01T01:12:34;6.10;99.90
14170;DHT22;63889;50.596;8.690;2023-02-01T01:15:00;6.10;99.90
14170;DHT22;63889;50.596;8.690;2023-02-01T01:17:25;6.20;99.90
14170;DHT22;63889;50.596;8.690;2023-02-01T01:19:51;6.20;99.90
14170;DHT22;63889;50.596;8.690;2023-02-01T01:22:16;6.20;99.90
14170;DHT22;63889;50.596;8.690;2023-02-01T01:24:43;6.10;99.90
14170;DHT22;63889;50.596;8.690;2023-02-01T01:27:08;6.10;99.90
14170;DHT22;63889;50.596;8.690;2023-02-01T01:29:34;6.10;99.90
14170;DHT22;63889;50.596;8.690;2023-02-01T01:31:59;6.20;99.90
14170;DHT22;63889;50.596;8.690;2023-02-01T01:34:25;6.20;99.90
14170;DHT22;63889;50.596;8.690;2023-02-01T01:36:50;6.20;99.90
14170;DHT22;63889;50.596;8.690;2023-02-01T01:39:16;6.20;99.90
14170;DHT22;63889;50.596;8.690;2023-02-01T01:41:41;6.10;99.90
14170;DHT22;63889;50.596;8.690;2023-02-01T01:47:11;6.10;99.90
14170;DHT22;63889;50.596;8.690;2023-02-01T01:49:37;6.20;99.90
14170;DHT22;63889;50.596;8.690;2023-02-01T01:52:03;6.10;99.90
14170;DHT22;63889;50.596;8.690;2023-02-01T01:54:43;6.10;99.90
14170;DHT22;63889;50.596;8.690;2023-02-01T01:57:34;6.10;99.90
14170;DHT22;63889;50.596;8.690;2023-02-01T02:00:07;6.20;99.90
14170;DHT22;63889;50.596;8.690;2023-02-01T02:02:33;6.20;99.90
14170;DHT22;63889;50.596;8.690;2023-02-01T02:04:59;6.20;99.90
14170;DHT22;63889;50.596;8.690;2023-02-01T02:07:29;6.20;99.90
14170;DHT22;63889;50.596;8.690;2023-02-01T02:09:55;6.20;99.90
14170;DHT22;63889;50.596;8.690;2023-02-01T02:12:20;6.20;99.90
14170;DHT22;63889;50.596;8.690;2023-02-01T02:14:46;6.20;99.90
14170;DHT22;63889;50.596;8.690;2023-02-01T02:31:54;6.10;99.90
14170;DHT22;63889;50.596;8.690;2023-02-01T02:34:44;6.10;99.90
14170;DHT22;63889;50.596;8.690;2023-02-01T02:37:38;6.20;99.90
14170;DHT22;63889;50.596;8.690;2023-02-01T02:40:13;6.20;99.90
14170;DHT22;63889;50.596;8.690;2023-02-01T02:43:21;6.20;99.90
14170;DHT22;63889;50.596;8.690;2023-02-01T02:46:23;6.20;99.90
14170;DHT22;63889;50.596;8.690;2023-02-01T02:49:35;6.20;99.90
14170;DHT22;63889;50.596;8.690;2023-02-01T02:52:12;6.20;99.90
14170;DHT22;63889;50.596;8.690;2023-02-01T02:54:59;6.20;99.90
14170;DHT22;63889;50.596;8.690;2023-02-01T02:57:36;6.10;99.90
14170;DHT22;63889;50.596;8.690;2023-02-01T03:00:27;6.20;99.90
14170;DHT22;63889;50.596;8.690;2023-02-01T03:03:12;6.20;99.90
14170;DHT22;63889;50.596;8.690;2023-02-01T03:05:56;6.20;99.90
14170;DHT22;63889;50.596;8.690;2023-02-01T03:08:27;6.20;99.90
14170;DHT22;63889;50.596;8.690;2023-02-01T03:13:36;6.30;99.90
14170;DHT22;63889;50.596;8.690;2023-02-01T03:16:15;6.30;99.90
14170;DHT22;63889;50.596;8.690;2023-02-01T03:19:37;6.30;99.90
14170;DHT22;63889;50.596;8.690;2023-02-01T03:21:43;6.30;99.90
14170;DHT22;63889;50.596;8.690;2023-02-01T03:24:16;6.30;99.90
14170;DHT22;63889;50.596;8.690;2023-02-01T03:26:50;6.30;99.90
14170;DHT22;63889;50.596;8.690;2023-02-01T03:29:32;6.20;99.90
14170;DHT22;63889;50.596;8.690;2023-02-01T03:31:59;6.20;99.90
14170;DHT22;63889;50.596;8.690;2023-02-01T03:34:24;6.10;99.90
14170;DHT22;63889;50.596;8.690;2023-02-01T03:36:55;6.20;99.90
14170;DHT22;63889;50.596;8.690;2023-02-01T03:39:37;6.10;99.90
14170;DHT22;63889;50.596;8.690;2023-02-01T03:44:53;6.20;99.90
14170;DHT22;63889;50.596;8.690;2023-02-01T03:47:25;6.10;99.90
14170;DHT22;63889;50.596;8.690;2023-02-01T03:49:59;6.10;99.90
14170;DHT22;63889;50.596;8.690;2023-02-01T03:52:29;6.10;99.90
14170;DHT22;63889;50.596;8.690;2023-02-01T03:54:56;6.20;99.90
14170;DHT22;63889;50.596;8.690;2023-02-01T03:57:28;6.10;99.90
14170;DHT22;63889;50.596;8.690;2023-02-01T04:00:04;6.20;99.90
14170;DHT22;63889;50.596;8.690;2023-02-01T04:02:30;6.20;99.90
14170;DHT22;63889;50.596;8.690;2023-02-01T04:04:56;6.10;99.90
14170;DHT22;63889;50.596;8.690;2023-02-01T04:07:22;6.20;99.90
14170;DHT22;63889;50.596;8.690;2023-02-01T04:09:47;6.20;99.90
14170;DHT22;63889;50.596;8.690;2023-02-01T04:12:13;6.30;99.90
14170;DHT22;63889;50.596;8.690;2023-02-01T04:14:38;6.30;99.90
14170;DHT22;63889;50.596;8.690;2023-02-01T04:17:04;6.30;99.90
14170;DHT22;63889;50.596;8.690;2023-02-01T04:19:29;6.30;99.90
14170;DHT22;63889;50.596;8.690;2023-02-01T04:21:54;6.30;99.90
14170;DHT22;63889;50.596;8.690;2023-02-01T04:24:20;6.30;99.90
14170;DHT22;63889;50.596;8.690;2023-02-01T04:26:45;6.30;99.90
14170;DHT22;63889;50.596;8.690;2023-02-01T04:29:11;6.30;99.90
14170;DHT22;63889;50.596;8.690;2023-02-01T04:31:37;6.40;99.90
14170;DHT22;63889;50.596;8.690;2023-02-01T04:34:02;6.30;99.90
14170;DHT22;63889;50.596;8.690;2023-02-01T04:36:28;6.30;99.90
14170;DHT22;63889;50.596;8.690;2023-02-01T04:38:53;6.40;99.90
14170;DHT22;63889;50.596;8.690;2023-02-01T04:41:19;6.40;99.90
14170;DHT22;63889;50.596;8.690;2023-02-01T04:43:46;6.40;99.90
14170;DHT22;63889;50.596;8.690;2023-02-01T04:46:12;6.40;99.90
14170;DHT22;63889;50.596;8.690;2023-02-01T04:48:37;6.40;99.90
14170;DHT22;63889;50.596;8.690;2023-02-01T04:51:03;6.30;99.90
14170;DHT22;63889;50.596;8.690;2023-02-01T04:53:28;6.30;99.90
14170;DHT22;63889;50.596;8.690;2023-02-01T04:55:55;6.40;99.90
14170;DHT22;63889;50.596;8.690;2023-02-01T04:58:20;6.30;99.90
14170;DHT22;63889;50.596;8.690;2023-02-01T05:00:46;6.30;99.90
14170;DHT22;63889;50.596;8.690;2023-02-01T05:03:12;6.30;99.90
14170;DHT22;63889;50.596;8.690;2023-02-01T05:05:37;6.30;99.90
14170;DHT22;63889;50.596;8.690;2023-02-01T05:08:03;6.30;99.90
14170;DHT22;63889;50.596;8.690;2023-02-01T05:10:29;6.30;99.90
14170;DHT22;63889;50.596;8.690;2023-02-01T05:12:54;6.20;99.90
14170;DHT22;63889;50.596;8.690;2023-02-01T05:15:38;6.20;99.90
14170;DHT22;63889;50.596;8.690;2023-02-01T05:18:04;6.10;99.90
14170;DHT22;63889;50.596;8.690;2023-02-01T05:20:30;6.10;99.90
14170;DHT22;63889;50.596;8.690;2023-02-01T05:22:55;6.10;99.90
14170;DHT22;63889;50.596;8.690;2023-02-01T05:25:21;6.00;99.90
14170;DHT22;63889;50.596;8.690;2023-02-01T05:27:46;6.00;99.90
14170;DHT22;63889;50.596;8.690;2023-02-01T05:30:12;6.00;99.90
14170;DHT22;63889;50.596;8.690;2023-02-01T05:32:38;6.00;99.90
14170;DHT22;63889;50.596;8.690;2023-02-01T05:35:03;5.90;99.90
14170;DHT22;63889;50.596;8.690;2023-02-01T05:37:29;5.80;99.90
14170;DHT22;63889;50.596;8.690;2023-02-01T05:39:54;5.90;99.90
14170;DHT22;63889;50.596;8.690;2023-02-01T05:42:20;5.80;99.90
14170;DHT22;63889;50.596;8.690;2023-02-01T05:44:46;5.80;99.90
14170;DHT22;63889;50.596;8.690;2023-02-01T05:47:11;5.80;99.90
14170;DHT22;63889;50.596;8.690;2023-02-01T05:49:37;5.90;99.90
14170;DHT22;63889;50.596;8.690;2023-02-01T05:52:03;5.90;99.90
14170;DHT22;63889;50.596;8.690;2023-02-01T05:54:29;5.90;99.90
14170;DHT22;63889;50.596;8.690;2023-02-01T05:56:54;5.90;99.90
14170;DHT22;63889;50.596;8.690;2023-02-01T05:59:20;5.80;99.90
14170;DHT22;63889;50.596;8.690;2023-02-01T06:01:45;5.80;99.90
14170;DHT22;63889;50.596;8.690;2023-02-01T06:04:11;5.90;99.90
14170;DHT22;63889;50.596;8.690;2023-02-01T06:06:37;5.80;99.90
14170;DHT22;63889;50.596;8.690;2023-02-01T06:09:03;5.80;99.90
14170;DHT22;63889;50.596;8.690;2023-02-01T06:11:29;5.70;99.90
14170;DHT22;63889;50.596;8.690;2023-02-01T06:13:54;5.70;99.90
14170;DHT22;63889;50.596;8.690;2023-02-01T06:16:22;5.80;99.90
14170;DHT22;63889;50.596;8.690;2023-02-01T06:18:48;5.80;99.90
14170;DHT22;63889;50.596;8.690;2023-02-01T06:21:13;5.80;99.90
14170;DHT22;63889;50.596;8.690;2023-02-01T06:23:49;5.70;99.90
14170;DHT22;63889;50.596;8.690;2023-02-01T06:26:15;5.80;99.90
14170;DHT22;63889;50.596;8.690;2023-02-01T06:28:42;5.80;99.90
14170;DHT22;63889;50.596;8.690;2023-02-01T06:31:08;5.80;99.90
14170;DHT22;63889;50.596;8.690;2023-02-01T06:33:34;5.80;99.90
14170;DHT22;63889;50.596;8.690;2023-02-01T06:36:01;5.80;99.90
14170;DHT22;63889;50.596;8.690;2023-02-01T06:38:29;5.80;99.90
14170;DHT22;63889;50.596;8.690;2023-02-01T06:40:56;5.80;99.90
14170;DHT22;63889;50.596;8.690;2023-02-01T06:43:23;5.90;99.90
14170;DHT22;63889;50.596;8.690;2023-02-01T06:45:49;5.90;99.90
14170;DHT22;63889;50.596;8.690;2023-02-01T06:48:14;5.90;99.90
14170;DHT22;63889;50.596;8.690;2023-02-01T06:50:40;5.80;99.90
14170;DHT22;63889;50.596;8.690;2023-02-01T06:53:05;5.90;99.90
14170;DHT22;63889;50.596;8.690;2023-02-01T06:55:31;5.90;99.90
14170;DHT22;63889;50.596;8.690;2023-02-01T06:57:56;5.90;99.90
14170;DHT22;63889;50.596;8.690;2023-02-01T07:00:23;6.00;99.90
14170;DHT22;63889;50.596;8.690;2023-02-01T07:02:49;6.00;99.90
14170;DHT22;63889;50.596;8.690;2023-02-01T07:05:15;6.00;99.90
14170;DHT22;63889;50.596;8.690;2023-02-01T07:07:40;6.00;99.90
14170;DHT22;63889;50.596;8.690;2023-02-01T07:10:06;5.90;99.90
14170;DHT22;63889;50.596;8.690;2023-02-01T07:12:32;6.10;99.90
14170;DHT22;63889;50.596;8.690;2023-02-01T07:14:57;6.10;99.90
14170;DHT22;63889;50.596;8.690;2023-02-01T07:17:23;6.00;99.90
14170;DHT22;63889;50.596;8.690;2023-02-01T07:19:49;6.00;99.90
14170;DHT22;63889;50.596;8.690;2023-02-01T07:22:17;6.00;99.90
14170;DHT22;63889;50.596;8.690;2023-02-01T07:24:43;6.00;99.90
14170;DHT22;63889;50.596;8.690;2023-02-01T07:27:08;6.00;99.90
14170;DHT22;63889;50.596;8.690;2023-02-01T07:29:34;6.00;99.90
14170;DHT22;63889;50.596;8.690;2023-02-01T07:31:59;6.00;99.90
14170;DHT22;63889;50.596;8.690;2023-02-01T07:34:26;6.00;99.90
14170;DHT22;63889;50.596;8.690;2023-02-01T07:36:51;6.00;99.90
14170;DHT22;63889;50.596;8.690;2023-02-01T07:39:17;6.10;99.90
14170;DHT22;63889;50.596;8.690;2023-02-01T07:41:42;6.10;99.90
14170;DHT22;63889;50.596;8.690;2023-02-01T07:44:08;6.10;99.90
14170;DHT22;63889;50.596;8.690;2023-02-01T07:46:33;6.20;99.90
14170;DHT22;63889;50.596;8.690;2023-02-01T07:48:59;6.20;99.90
14170;DHT22;63889;50.596;8.690;2023-02-01T07:51:24;6.30;99.90
14170;DHT22;63889;50.596;8.690;2023-02-01T07:53:50;6.40;99.90
14170;DHT22;63889;50.596;8.690;2023-02-01T07:56:18;6.40;99.90
14170;DHT22;63889;50.596;8.690;2023-02-01T07:58:47;6.40;99.90
14170;DHT22;63889;50.596;8.690;2023-02-01T08:01:14;6.40;99.90
14170;DHT22;63889;50.596;8.690;2023-02-01T08:03:58;6.40;99.90
14170;DHT22;63889;50.596;8.690;2023-02-01T08:06:28;6.50;99.90
14170;DHT22;63889;50.596;8.690;2023-02-01T08:08:54;6.50;99.90
14170;DHT22;63889;50.596;8.690;2023-02-01T08:11:20;6.40;99.90
14170;DHT22;63889;50.596;8.690;2023-02-01T08:13:47;6.40;99.90
14170;DHT22;63889;50.596;8.690;2023-02-01T08:16:14;6.50;99.90
14170;DHT22;63889;50.596;8.690;2023-02-01T08:18:41;6.50;99.90
14170;DHT22;63889;50.596;8.690;2023-02-01T08:23:38;6.60;99.90
14170;DHT22;63889;50.596;8.690;2023-02-01T08:26:06;6.60;99.90
14170;DHT22;63889;50.596;8.690;2023-02-01T08:28:32;6.60;99.90
14170;DHT22;63889;50.596;8.690;2023-02-01T08:30:57;6.60;99.90
14170;DHT22;63889;50.596;8.690;2023-02-01T08:33:23;6.60;99.90
14170;DHT22;63889;50.596;8.690;2023-02-01T08:35:48;6.60;99.90
14170;DHT22;63889;50.596;8.690;2023-02-01T08:38:14;6.60;99.90
14170;DHT22;63889;50.596;8.690;2023-02-01T08:40:39;6.60;99.90
14170;DHT22;63889;50.596;8.690;2023-02-01T08:43:07;6.60;99.90
14170;DHT22;63889;50.596;8.690;2023-02-01T08:45:32;6.60;99.90
14170;DHT22;63889;50.596;8.690;2023-02-01T08:47:58;6.60;99.90
14170;DHT22;63889;50.596;8.690;2023-02-01T08:50:24;6.50;99.90
14170;DHT22;63889;50.596;8.690;2023-02-01T08:52:51;6.50;99.90
14170;DHT22;63889;50.596;8.690;2023-02-01T08:55:17;6.60;99.90
14170;DHT22;63889;50.596;8.690;2023-02-01T08:57:43;6.70;99.90
14170;DHT22;63889;50.596;8.690;2023-02-01T09:00:13;6.70;99.90
14170;DHT22;63889;50.596;8.690;2023-02-01T09:02:39;6.70;99.90
14170;DHT22;63889;50.596;8.690;2023-02-01T09:05:05;6.70;99.90
14170;DHT22;63889;50.596;8.690;2023-02-01T09:07:32;6.70;99.90
14170;DHT22;63889;50.596;8.690;2023-02-01T09:09:58;6.80;99.90
14170;DHT22;63889;50.596;8.690;2023-02-01T09:12:29;6.80;99.90
14170;DHT22;63889;50.596;8.690;2023-02-01T09:14:56;6.80;99.90
14170;DHT22;63889;50.596;8.690;2023-02-01T09:17:27;6.70;99.90
14170;DHT22;63889;50.596;8.690;2023-02-01T09:19:53;6.80;99.90
14170;DHT22;63889;50.596;8.690;2023-02-01T09:22:19;6.90;99.90
14170;DHT22;63889;50.596;8.690;2023-02-01T09:24:44;6.90;99.90
14170;DHT22;63889;50.596;8.690;2023-02-01T09:27:10;6.80;99.90
14170;DHT22;63889;50.596;8.690;2023-02-01T09:29:36;6.80;99.90
14170;DHT22;63889;50.596;8.690;2023-02-01T09:32:01;6.80;99.90
14170;DHT22;63889;50.596;8.690;2023-02-01T09:34:27;6.80;99.90
14170;DHT22;63889;50.596;8.690;2023-02-01T09:36:53;6.90;99.90
14170;DHT22;63889;50.596;8.690;2023-02-01T09:39:18;6.90;99.90
14170;DHT22;63889;50.596;8.690;2023-02-01T09:47:14;7.10;99.90
14170;DHT22;63889;50.596;8.690;2023-02-01T09:49:51;7.20;99.90
14170;DHT22;63889;50.596;8.690;2023-02-01T09:52:23;7.10;99.90
14170;DHT22;63889;50.596;8.690;2023-02-01T09:55:00;7.10;99.90
14170;DHT22;63889;50.596;8.690;2023-02-01T10:00:34;7.00;99.90
14170;DHT22;63889;50.596;8.690;2023-02-01T10:03:00;7.00;99.90
14170;DHT22;63889;50.596;8.690;2023-02-01T10:11:12;6.90;99.90
14170;DHT22;63889;50.596;8.690;2023-02-01T10:13:54;6.90;99.90
14170;DHT22;63889;50.596;8.690;2023-02-01T10:16:40;7.00;99.90
14170;DHT22;63889;50.596;8.690;2023-02-01T10:19:17;7.00;99.90
14170;DHT22;63889;50.596;8.690;2023-02-01T10:27:08;6.80;99.90
14170;DHT22;63889;50.596;8.690;2023-02-01T10:29:43;6.80;99.90
14170;DHT22;63889;50.596;8.690;2023-02-01T10:32:24;6.80;99.90
14170;DHT22;63889;50.596;8.690;2023-02-01T10:34:58;6.80;99.90
14170;DHT22;63889;50.596;8.690;2023-02-01T10:37:28;6.80;99.90
14170;DHT22;63889;50.596;8.690;2023-02-01T10:39:56;6.90;99.90
14170;DHT22;63889;50.596;8.690;2023-02-01T10:42:26;6.90;99.90
14170;DHT22;63889;50.596;8.690;2023-02-01T10:44:53;7.00;99.90
14170;DHT22;63889;50.596;8.690;2023-02-01T10:47:19;6.90;99.90
14170;DHT22;63889;50.596;8.690;2023-02-01T10:52:43;6.90;99.90
14170;DHT22;63889;50.596;8.690;2023-02-01T10:55:37;6.90;99.90
14170;DHT22;63889;50.596;8.690;2023-02-01T10:58:06;6.90;99.90
14170;DHT22;63889;50.596;8.690;2023-02-01T11:01:00;6.90;99.90
14170;DHT22;63889;50.596;8.690;2023-02-01T11:03:41;6.90;99.90
14170;DHT22;63889;50.596;8.690;2023-02-01T11:08:51;7.20;99.90
14170;DHT22;63889;50.596;8.690;2023-02-01T11:11:18;7.20;99.90
14170;DHT22;63889;50.596;8.690;2023-02-01T11:13:43;7.30;99.90
14170;DHT22;63889;50.596;8.690;2023-02-01T11:16:13;7.30;99.90
14170;DHT22;63889;50.596;8.690;2023-02-01T11:18:39;7.30;99.90
14170;DHT22;63889;50.596;8.690;2023-02-01T11:21:06;7.20;99.90
14170;DHT22;63889;50.596;8.690;2023-02-01T11:23:33;7.20;99.90
14170;DHT22;63889;50.596;8.690;2023-02-01T11:26:23;7.30;99.90
14170;DHT22;63889;50.596;8.690;2023-02-01T11:29:05;7.30;99.90
14170;DHT22;63889;50.596;8.690;2023-02-01T11:31:35;7.20;99.90
14170;DHT22;63889;50.596;8.690;2023-02-01T11:34:16;7.20;99.90
14170;DHT22;63889;50.596;8.690;2023-02-01T11:36:42;7.20;99.90
14170;DHT22;63889;50.596;8.690;2023-02-01T11:42:15;7.30;99.90
14170;DHT22;63889;50.596;8.690;2023-02-01T11:44:44;7.30;99.90
14170;DHT22;63889;50.596;8.690;2023-02-01T11:47:27;7.40;99.90
14170;DHT22;63889;50.596;8.690;2023-02-01T11:49:59;7.40;99.90
14170;DHT22;63889;50.596;8.690;2023-02-01T12:00:54;7.20;99.90
14170;DHT22;63889;50.596;8.690;2023-02-01T12:17:41;7.60;99.90
14170;DHT22;63889;50.596;8.690;2023-02-01T12:22:53;7.70;99.90
14170;DHT22;63889;50.596;8.690;2023-02-01T12:25:54;7.70;99.90
14170;DHT22;63889;50.596;8.690;2023-02-01T12:36:32;7.60;99.90
14170;DHT22;63889;50.596;8.690;2023-02-01T12:39:12;7.70;99.90
14170;DHT22;63889;50.596;8.690;2023-02-01T12:44:39;8.00;99.90
14170;DHT22;63889;50.596;8.690;2023-02-01T12:47:29;8.10;99.90
14170;DHT22;63889;50.596;8.690;2023-02-01T12:50:02;8.00;99.90
14170;DHT22;63889;50.596;8.690;2023-02-01T12:52:44;8.00;99.90
14170;DHT22;63889;50.596;8.690;2023-02-01T12:57:56;8.10;99.90
14170;DHT22;63889;50.596;8.690;2023-02-01T13:00:34;8.30;99.90
14170;DHT22;63889;50.596;8.690;2023-02-01T13:06:00;8.40;99.90
14170;DHT22;63889;50.596;8.690;2023-02-01T13:11:35;8.30;99.90
14170;DHT22;63889;50.596;8.690;2023-02-01T13:14:29;8.20;99.90
14170;DHT22;63889;50.596;8.690;2023-02-01T13:17:08;8.10;99.90
14170;DHT22;63889;50.596;8.690;2023-02-01T13:19:47;8.00;99.90
14170;DHT22;63889;50.596;8.690;2023-02-01T13:22:32;8.00;99.90
14170;DHT22;63889;50.596;8.690;2023-02-01T13:25:02;8.00;99.90
14170;DHT22;63889;50.596;8.690;2023-02-01T13:27:29;8.20;99.90
14170;DHT22;63889;50.596;8.690;2023-02-01T13:32:45;8.50;99.90
14170;DHT22;63889;50.596;8.690;2023-02-01T13:38:10;8.50;99.90
14170;DHT22;63889;50.596;8.690;2023-02-01T13:41:19;8.50;99.90
14170;DHT22;63889;50.596;8.690;2023-02-01T13:43:51;8.50;99.90
14170;DHT22;63889;50.596;8.690;2023-02-01T13:46:18;8.40;99.90
14170;DHT22;63889;50.596;8.690;2023-02-01T13:48:52;8.30;99.90
14170;DHT22;63889;50.596;8.690;2023-02-01T13:51:42;8.30;99.90
14170;DHT22;63889;50.596;8.690;2023-02-01T13:56:50;8.20;99.90
14170;DHT22;63889;50.596;8.690;2023-02-01T14:02:45;8.20;99.90
14170;DHT22;63889;50.596;8.690;2023-02-01T14:08:11;8.30;99.90
14170;DHT22;63889;50.596;8.690;2023-02-01T14:21:29;8.20;99.90
14170;DHT22;63889;50.596;8.690;2023-02-01T14:24:25;8.20;99.90
14170;DHT22;63889;50.596;8.690;2023-02-01T14:26:56;8.10;99.90
14170;DHT22;63889;50.596;8.690;2023-02-01T14:32:03;8.10;99.90
14170;DHT22;63889;50.596;8.690;2023-02-01T14:42:21;8.00;99.90
14170;DHT22;63889;50.596;8.690;2023-02-01T14:44:48;8.00;99.90
14170;DHT22;63889;50.596;8.690;2023-02-01T14:52:49;8.00;99.90
14170;DHT22;63889;50.596;8.690;2023-02-01T14:55:24;8.00;99.90
14170;DHT22;63889;50.596;8.690;2023-02-01T14:57:54;8.00;99.90
14170;DHT22;63889;50.596;8.690;2023-02-01T15:00:24;7.90;99.90
14170;DHT22;63889;50.596;8.690;2023-02-01T15:02:50;7.80;99.90
14170;DHT22;63889;50.596;8.690;2023-02-01T15:07:51;7.70;99.90
14170;DHT22;63889;50.596;8.690;2023-02-01T15:10:17;7.50;99.90
14170;DHT22;63889;50.596;8.690;2023-02-01T15:12:45;7.40;99.90
14170;DHT22;63889;50.596;8.690;2023-02-01T15:15:20;7.30;99.90
14170;DHT22;63889;50.596;8.690;2023-02-01T15:17:57;7.30;99.90
14170;DHT22;63889;50.596;8.690;2023-02-01T15:20:25;7.10;99.90
14170;DHT22;63889;50.596;8.690;2023-02-01T15:22:59;7.00;99.90
14170;DHT22;63889;50.596;8.690;2023-02-01T15:25:30;7.00;99.90
14170;DHT22;63889;50.596;8.690;2023-02-01T15:27:57;6.90;99.90
14170;DHT22;63889;50.596;8.690;2023-02-01T15:30:27;6.80;99.90
14170;DHT22;63889;50.596;8.690;2023-02-01T15:35:50;6.80;99.90
14170;DHT22;63889;50.596;8.690;2023-02-01T15:38:32;6.80;99.90
14170;DHT22;63889;50.596;8.690;2023-02-01T15:41:03;6.70;99.90
14170;DHT22;63889;50.596;8.690;2023-02-01T15:43:37;6.50;99.90
14170;DHT22;63889;50.596;8.690;2023-02-01T15:46:09;6.30;99.90
14170;DHT22;63889;50.596;8.690;2023-02-01T15:48:45;6.20;99.90
14170;DHT22;63889;50.596;8.690;2023-02-01T15:51:14;6.20;99.90
14170;DHT22;63889;50.596;8.690;2023-02-01T15:53:44;6.30;99.90
14170;DHT22;63889;50.596;8.690;2023-02-01T15:56:10;6.30;99.90
14170;DHT22;63889;50.596;8.690;2023-02-01T15:58:36;6.30;99.90
14170;DHT22;63889;50.596;8.690;2023-02-01T16:01:03;6.20;99.90
14170;DHT22;63889;50.596;8.690;2023-02-01T16:03:43;6.20;99.90
14170;DHT22;63889;50.596;8.690;2023-02-01T16:06:27;6.20;99.90
14170;DHT22;63889;50.596;8.690;2023-02-01T16:11:30;6.20;99.90
14170;DHT22;63889;50.596;8.690;2023-02-01T16:14:00;6.10;99.90
14170;DHT22;63889;50.596;8.690;2023-02-01T16:16:28;6.10;99.90
14170;DHT22;63889;50.596;8.690;2023-02-01T16:18:54;6.10;99.90
14170;DHT22;63889;50.596;8.690;2023-02-01T16:21:20;6.00;99.90
14170;DHT22;63889;50.596;8.690;2023-02-01T16:23:49;6.10;99.90
14170;DHT22;63889;50.596;8.690;2023-02-01T16:26:16;6.20;99.90
14170;DHT22;63889;50.596;8.690;2023-02-01T16:28:41;6.20;99.90
14170;DHT22;63889;50.596;8.690;2023-02-01T16:31:12;6.20;99.90
14170;DHT22;63889;50.596;8.690;2023-02-01T16:33:53;6.20;99.90
14170;DHT22;63889;50.596;8.690;2023-02-01T16:36:19;6.20;99.90
14170;DHT22;63889;50.596;8.690;2023-02-01T16:38:45;6.10;99.90
14170;DHT22;63889;50.596;8.690;2023-02-01T16:41:14;6.10;99.90
14170;DHT22;63889;50.596;8.690;2023-02-01T16:43:40;6.20;99.90
14170;DHT22;63889;50.596;8.690;2023-02-01T16:46:16;6.20;99.90
14170;DHT22;63889;50.596;8.690;2023-02-01T16:48:46;6.20;99.90
14170;DHT22;63889;50.596;8.690;2023-02-01T16:51:14;6.20;99.90
14170;DHT22;63889;50.596;8.690;2023-02-01T16:53:41;6.20;99.90
14170;DHT22;63889;50.596;8.690;2023-02-01T16:58:43;6.40;99.90
14170;DHT22;63889;50.596;8.690;2023-02-01T17:01:11;6.40;99.90
14170;DHT22;63889;50.596;8.690;2023-02-01T17:03:37;6.40;99.90
14170;DHT22;63889;50.596;8.690;2023-02-01T17:06:03;6.40;99.90
14170;DHT22;63889;50.596;8.690;2023-02-01T17:08:32;6.50;99.90
14170;DHT22;63889;50.596;8.690;2023-02-01T17:10:58;6.50;99.90
14170;DHT22;63889;50.596;8.690;2023-02-01T17:13:23;6.50;99.90
14170;DHT22;63889;50.596;8.690;2023-02-01T17:15:54;6.50;99.90
14170;DHT22;63889;50.596;8.690;2023-02-01T17:18:22;6.50;99.90
14170;DHT22;63889;50.596;8.690;2023-02-01T17:20:47;6.50;99.90
14170;DHT22;63889;50.596;8.690;2023-02-01T17:23:14;6.50;99.90
14170;DHT22;63889;50.596;8.690;2023-02-01T17:25:40;6.50;99.90
14170;DHT22;63889;50.596;8.690;2023-02-01T17:28:06;6.50;99.90
14170;DHT22;63889;50.596;8.690;2023-02-01T17:30:32;6.50;99.90
14170;DHT22;63889;50.596;8.690;2023-02-01T17:32:58;6.60;99.90
14170;DHT22;63889;50.596;8.690;2023-02-01T17:35:25;6.60;99.90
14170;DHT22;63889;50.596;8.690;2023-02-01T17:37:52;6.60;99.90
14170;DHT22;63889;50.596;8.690;2023-02-01T17:40:18;6.40;99.90
14170;DHT22;63889;50.596;8.690;2023-02-01T17:42:44;6.40;99.90
14170;DHT22;63889;50.596;8.690;2023-02-01T17:47:51;6.40;99.90
14170;DHT22;63889;50.596;8.690;2023-02-01T17:50:17;6.40;99.90
14170;DHT22;63889;50.596;8.690;2023-02-01T17:52:43;6.40;99.90
14170;DHT22;63889;50.596;8.690;2023-02-01T17:55:20;6.40;99.90
14170;DHT22;63889;50.596;8.690;2023-02-01T17:57:47;6.40;99.90
14170;DHT22;63889;50.596;8.690;2023-02-01T18:00:14;6.30;99.90
14170;DHT22;63889;50.596;8.690;2023-02-01T18:02:41;6.20;99.90
14170;DHT22;63889;50.596;8.690;2023-02-01T18:05:39;6.20;99.90
14170;DHT22;63889;50.596;8.690;2023-02-01T18:08:06;6.20;99.90
14170;DHT22;63889;50.596;8.690;2023-02-01T18:10:33;6.20;99.90
14170;DHT22;63889;50.596;8.690;2023-02-01T18:12:58;6.20;99.90
14170;DHT22;63889;50.596;8.690;2023-02-01T18:15:24;6.20;99.90
14170;DHT22;63889;50.596;8.690;2023-02-01T18:17:50;6.10;99.90
14170;DHT22;63889;50.596;8.690;2023-02-01T18:20:19;6.10;99.90
14170;DHT22;63889;50.596;8.690;2023-02-01T18:22:45;6.10;99.90
14170;DHT22;63889;50.596;8.690;2023-02-01T18:25:19;6.10;99.90
14170;DHT22;63889;50.596;8.690;2023-02-01T18:27:47;6.10;99.90
14170;DHT22;63889;50.596;8.690;2023-02-01T18:30:13;6.10;99.90
14170;DHT22;63889;50.596;8.690;2023-02-01T18:32:39;6.20;99.90
14170;DHT22;63889;50.596;8.690;2023-02-01T18:35:24;6.20;99.90